Minas Novas, Brazil
Current Conditions -  °F | °C
As of 5:00 PM on Thursday 30 Oct 2014 (Local Time) from SBMK Reporting Station
Broken Clouds Broken Clouds  
Wind Chill: 81°   Ceiling: 10000
Heat Index: 81°   Visibility: 6mi
Dew Point: 61°   Wind: 5mph
Humidity: 51%   Direction: 60°ENE
Pressure: 29.91"   Gusts: NA
Location:  17.25°S, 42.6°W
Report Text: SBMK 301900Z 06004KT 9999 FEW025 BKN100 27/16 Q1013
Loading
Personal Weather Stations






























Interactive Weather Map
Tropical Storm Tracking
New forecast layout! Learn more

10-Day Weather Forecast

Advertisements
Track Severe Weather on mobile